Time;durP1;ratioP1;P1;durP2;ratioP2;P2;SDS_P1;SDS_P2;PMS_P1;PMS_P2;Temp;Humidity;BMP_temperature;BMP_pressure;BME280_temperature;BME280_humidity;BME280_pressure;Samples;Min_cycle;Max_cycle;Signal;HPM_P1;HPM_P2
2022/07/26 00:02:15;;;;;;;7.30;1.80;;;;;;;17.92;72.04;100431.38;6049312;28;20458;-63
2022/07/26 00:05:10;;;;;;;6.07;1.93;;;;;;;17.58;74.17;100435.75;6049591;28;20033;-65
2022/07/26 00:08:12;;;;;;;7.23;1.93;;;;;;;17.57;75.64;100423.38;6049833;28;20072;-64
2022/07/26 00:11:07;;;;;;;8.98;2.08;;;;;;;17.18;75.23;100418.56;6048591;28;20418;-63
2022/07/26 00:14:04;;;;;;;5.97;1.70;;;;;;;16.94;76.86;100428.91;6049327;28;20060;-65
2022/07/26 00:17:00;;;;;;;4.10;1.60;;;;;;;16.77;77.66;100432.91;6049461;28;20393;-66
2022/07/26 00:19:55;;;;;;;5.22;1.85;;;;;;;16.69;78.59;100438.38;6049002;28;20037;-64
2022/07/26 00:22:50;;;;;;;5.57;2.03;;;;;;;16.59;79.20;100444.88;6046999;28;20030;-66
2022/07/26 00:25:46;;;;;;;5.93;1.80;;;;;;;16.64;79.62;100442.44;6048679;28;20049;-65
2022/07/26 00:28:41;;;;;;;5.57;2.10;;;;;;;16.63;79.55;100439.97;6048671;28;20029;-64
2022/07/26 00:31:37;;;;;;;4.83;1.93;;;;;;;16.79;79.51;100441.56;6047451;28;20832;-64
2022/07/26 00:34:32;;;;;;;6.25;1.90;;;;;;;17.15;79.07;100448.44;6049163;28;20301;-64
2022/07/26 00:37:27;;;;;;;6.37;1.90;;;;;;;17.27;78.30;100427.28;6048016;28;20103;-64
2022/07/26 00:40:23;;;;;;;6.20;1.90;;;;;;;17.53;76.07;100437.38;6052776;28;20363;-63
2022/07/26 00:43:18;;;;;;;5.73;1.73;;;;;;;17.56;74.34;100436.97;6057095;28;20559;-64
2022/07/26 00:46:13;;;;;;;4.73;1.70;;;;;;;17.71;74.94;100454.63;6056369;28;20056;-65
2022/07/26 00:49:10;;;;;;;5.27;1.60;;;;;;;18.13;74.40;100444.66;6056621;28;20032;-65
2022/07/26 00:52:06;;;;;;;7.63;1.92;;;;;;;17.99;73.71;100448.34;6056315;28;20022;-65
2022/07/26 00:55:02;;;;;;;4.53;1.55;;;;;;;17.85;74.06;100445.59;6071911;28;20403;-64
2022/07/26 00:57:59;;;;;;;6.88;1.83;;;;;;;17.78;73.77;100442.06;6056815;28;20033;-65
2022/07/26 01:00:55;;;;;;;6.75;1.58;;;;;;;18.05;75.65;100452.88;6055770;28;20080;-64
2022/07/26 01:03:52;;;;;;;6.63;1.63;;;;;;;18.25;73.56;100451.13;6056483;28;20041;-63
2022/07/26 01:06:48;;;;;;;5.43;1.85;;;;;;;18.36;72.09;100453.22;6056547;28;20026;-63
2022/07/26 01:09:44;;;;;;;4.90;1.33;;;;;;;18.37;70.62;100447.63;6056767;28;20476;-65
2022/07/26 01:12:40;;;;;;;3.67;1.58;;;;;;;18.28;70.42;100434.59;6055698;28;20030;-65
2022/07/26 01:15:35;;;;;;;6.43;1.42;;;;;;;18.10;70.54;100443.22;6056371;28;20041;-64
2022/07/26 01:18:31;;;;;;;4.77;1.53;;;;;;;18.02;70.93;100443.38;6056082;28;20429;-64
2022/07/26 01:21:30;;;;;;;5.87;1.57;;;;;;;18.23;71.23;100447.81;6056054;28;20268;-65
2022/07/26 01:24:25;;;;;;;9.70;1.60;;;;;;;18.25;70.94;100441.22;6056539;28;20373;-64
2022/07/26 01:27:21;;;;;;;5.83;1.53;;;;;;;18.39;71.50;100447.44;6056067;28;20034;-65
2022/07/26 01:30:16;;;;;;;4.20;1.73;;;;;;;18.34;71.25;100450.72;6055611;28;20037;-64
2022/07/26 01:33:11;;;;;;;3.97;1.27;;;;;;;18.29;71.38;100442.44;6056238;28;20790;-64
2022/07/26 01:36:07;;;;;;;4.97;1.43;;;;;;;18.27;71.38;100457.09;6056444;28;20033;-64
2022/07/26 01:39:03;;;;;;;7.07;1.50;;;;;;;18.39;70.84;100458.19;6056027;28;20114;-65
2022/07/26 01:41:58;;;;;;;7.00;1.52;;;;;;;18.39;70.77;100460.88;6055832;28;20025;-66
2022/07/26 01:44:54;;;;;;;5.10;1.30;;;;;;;18.22;70.33;100448.81;6056100;28;20117;-64
2022/07/26 01:47:49;;;;;;;11.93;3.93;;;;;;;18.14;70.96;100457.06;6055866;28;20748;-65
2022/07/26 01:50:44;;;;;;;6.00;1.93;;;;;;;18.25;71.45;100453.78;6055581;28;20041;-63
2022/07/26 01:53:40;;;;;;;6.53;1.57;;;;;;;18.30;71.02;100457.53;6051900;28;20034;-66
2022/07/26 01:56:35;;;;;;;5.78;1.40;;;;;;;18.23;70.84;100455.88;6053013;28;20261;-65
2022/07/26 01:59:30;;;;;;;7.40;1.40;;;;;;;18.37;70.56;100452.19;6051647;28;20038;-64
2022/07/26 02:02:26;;;;;;;5.63;1.95;;;;;;;18.25;70.41;100454.63;6051601;28;20276;-65
2022/07/26 02:05:21;;;;;;;4.53;1.70;;;;;;;18.29;70.31;100455.06;6052653;28;20100;-62
2022/07/26 02:08:16;;;;;;;8.23;1.50;;;;;;;18.40;70.56;100457.13;6051858;28;20334;-65
2022/07/26 02:11:12;;;;;;;6.33;1.40;;;;;;;18.54;70.20;100464.22;6052162;28;20083;-65
2022/07/26 02:14:07;;;;;;;7.93;1.73;;;;;;;18.46;70.02;100464.38;6052640;28;20034;-64
2022/07/26 02:17:02;;;;;;;6.07;1.40;;;;;;;18.36;69.56;100462.09;6049700;28;20096;-64
2022/07/26 02:19:58;;;;;;;7.00;1.33;;;;;;;18.58;72.07;100470.03;6044849;28;20057;-64
2022/07/26 02:22:53;;;;;;;2.92;1.40;;;;;;;18.48;70.21;100465.03;6050629;28;20402;-66
2022/07/26 02:25:48;;;;;;;6.50;1.40;;;;;;;18.48;69.66;100473.09;6051903;28;20042;-65
2022/07/26 02:28:44;;;;;;;6.20;1.90;;;;;;;18.41;70.01;100478.44;6051085;28;20028;-63
2022/07/26 02:31:39;;;;;;;8.70;1.77;;;;;;;18.46;69.94;100472.44;6050493;28;20044;-65
2022/07/26 02:34:34;;;;;;;5.07;1.30;;;;;;;18.40;69.32;100473.25;6051474;28;20045;-63
2022/07/26 02:37:29;;;;;;;8.43;1.83;;;;;;;18.38;69.17;100475.31;6051405;28;20272;-65
2022/07/26 02:40:25;;;;;;;7.87;1.30;;;;;;;18.30;70.09;100468.28;6050173;28;20036;-66
2022/07/26 02:43:20;;;;;;;4.20;1.10;;;;;;;18.14;70.48;100476.69;6051319;28;20053;-64
2022/07/26 02:46:15;;;;;;;8.73;1.70;;;;;;;18.15;70.54;100475.66;6051661;28;20304;-66
2022/07/26 02:49:11;;;;;;;2.27;1.00;;;;;;;18.18;70.93;100475.25;6050831;28;20028;-64
2022/07/26 02:52:06;;;;;;;4.07;1.07;;;;;;;18.18;70.07;100474.44;6050071;28;20042;-65
2022/07/26 02:55:01;;;;;;;4.97;1.13;;;;;;;18.27;69.80;100473.22;6051326;28;20037;-64
2022/07/26 02:57:57;;;;;;;3.03;1.00;;;;;;;18.34;69.46;100484.81;6050572;28;20040;-63
2022/07/26 03:00:52;;;;;;;6.10;1.00;;;;;;;18.34;69.64;100479.44;6050337;28;20034;-66
2022/07/26 03:03:47;;;;;;;5.32;1.33;;;;;;;18.33;68.60;100475.94;6049452;28;20369;-65
2022/07/26 03:06:43;;;;;;;2.65;1.00;;;;;;;18.29;68.46;100481.91;6050572;28;20113;-64
2022/07/26 03:09:38;;;;;;;3.13;0.98;;;;;;;18.30;68.46;100479.00;6050983;28;20461;-63
2022/07/26 03:12:33;;;;;;;3.87;0.90;;;;;;;18.35;68.70;100483.75;6049630;28;20049;-64
2022/07/26 03:15:29;;;;;;;3.10;1.13;;;;;;;18.25;68.62;100486.00;6065265;28;20432;-66
2022/07/26 03:18:24;;;;;;;3.47;1.08;;;;;;;18.25;69.48;100502.13;6049861;28;20535;-66
2022/07/26 03:21:19;;;;;;;4.60;1.40;;;;;;;18.27;69.45;100492.00;6050012;28;20026;-65
2022/07/26 03:24:15;;;;;;;5.43;1.30;;;;;;;18.22;69.42;100486.41;6050669;28;20080;-65
2022/07/26 03:27:10;;;;;;;3.07;1.00;;;;;;;18.27;69.39;100495.50;6049804;28;20109;-63
2022/07/26 03:30:06;;;;;;;6.93;1.53;;;;;;;18.29;69.28;100498.03;6049591;28;20034;-64
2022/07/26 03:33:02;;;;;;;6.47;1.60;;;;;;;18.31;69.89;100493.25;6050048;28;20033;-63
2022/07/26 03:35:57;;;;;;;6.27;1.13;;;;;;;18.35;69.52;100497.19;6050507;28;20022;-64
2022/07/26 03:38:52;;;;;;;3.97;1.10;;;;;;;18.35;69.40;100497.19;6049902;28;20334;-64
2022/07/26 03:41:48;;;;;;;5.70;1.30;;;;;;;18.32;69.14;100500.28;6049322;28;20298;-65
2022/07/26 03:44:43;;;;;;;3.63;1.23;;;;;;;18.24;69.70;100489.72;6049137;28;20037;-64
2022/07/26 03:47:38;;;;;;;6.43;1.40;;;;;;;18.27;69.90;100500.06;6049268;28;20092;-65
2022/07/26 03:50:34;;;;;;;4.85;1.38;;;;;;;18.20;69.98;100499.22;6041258;28;20038;-66
2022/07/26 03:53:29;;;;;;;5.23;1.20;;;;;;;18.05;71.16;100501.19;6050009;28;20033;-65
2022/07/26 03:56:27;;;;;;;4.07;1.00;;;;;;;18.00;71.90;100512.53;6049347;28;20422;-63
2022/07/26 03:59:24;;;;;;;7.75;1.10;;;;;;;17.90;71.71;100489.78;6049969;28;20296;-64
2022/07/26 04:02:19;;;;;;;2.53;1.10;;;;;;;17.88;71.66;100500.72;6048237;28;20116;-63
2022/07/26 04:05:14;;;;;;;6.40;1.07;;;;;;;17.82;72.29;100505.03;6049792;28;20461;-65
2022/07/26 04:08:10;;;;;;;1.80;1.00;;;;;;;17.79;72.71;100505.41;6049616;28;20045;-62
2022/07/26 04:11:05;;;;;;;4.50;1.10;;;;;;;17.83;72.11;100498.63;6048482;28;20041;-66
2022/07/26 04:14:01;;;;;;;6.55;1.30;;;;;;;17.88;71.98;100494.53;6049149;28;20026;-63
2022/07/26 04:16:56;;;;;;;5.57;1.30;;;;;;;18.01;72.24;100510.69;6048876;28;20033;-64
2022/07/26 04:19:53;;;;;;;6.10;1.03;;;;;;;17.94;72.06;100491.06;6049433;28;20030;-64
2022/07/26 04:22:48;;;;;;;5.53;1.35;;;;;;;18.06;72.03;100514.44;6049379;28;20465;-65
2022/07/26 04:25:43;;;;;;;2.85;1.02;;;;;;;18.04;72.39;100508.44;6049670;28;20095;-65
2022/07/26 04:28:40;;;;;;;4.47;1.30;;;;;;;18.09;72.68;100510.53;6049563;28;20025;-63
2022/07/26 04:31:36;;;;;;;6.25;1.20;;;;;;;18.26;72.02;100519.91;6047162;28;20027;-64
2022/07/26 04:34:31;;;;;;;4.97;1.10;;;;;;;18.36;71.59;100509.59;6049852;28;20588;-63
2022/07/26 04:37:26;;;;;;;5.33;1.17;;;;;;;18.50;70.67;100511.34;6048541;28;20034;-66
2022/07/26 04:40:22;;;;;;;5.60;1.05;;;;;;;18.50;71.01;100503.28;6048452;28;20056;-64
2022/07/26 04:43:18;;;;;;;3.60;1.20;;;;;;;18.53;70.82;100499.34;6049679;28;20029;-64
2022/07/26 04:46:13;;;;;;;5.72;1.30;;;;;;;18.81;70.86;100506.22;6049182;28;20026;-63
2022/07/26 04:49:09;;;;;;;5.30;1.70;;;;;;;19.04;69.41;100508.53;6048590;28;20157;-64
2022/07/26 04:52:04;;;;;;;8.07;1.37;;;;;;;19.07;69.45;100497.38;6048324;28;20423;-63
2022/07/26 04:54:59;;;;;;;7.97;1.58;;;;;;;19.20;69.19;100491.16;6048581;28;20036;-66
2022/07/26 04:57:55;;;;;;;8.30;1.57;;;;;;;19.27;69.25;100508.13;6049004;28;20062;-64
2022/07/26 05:00:50;;;;;;;4.43;1.37;;;;;;;19.38;69.04;100504.81;6048344;28;20040;-66
2022/07/26 05:03:45;;;;;;;3.53;1.40;;;;;;;19.29;68.52;100498.81;6061727;28;20276;-64
2022/07/26 05:06:41;;;;;;;5.57;1.50;;;;;;;19.38;68.81;100502.13;6057267;28;20038;-65
2022/07/26 05:09:36;;;;;;;6.05;1.63;;;;;;;19.39;68.94;100496.56;6048374;28;20040;-65
2022/07/26 05:12:32;;;;;;;10.13;2.50;;;;;;;19.41;68.96;100505.25;6047524;28;20029;-63
2022/07/26 05:15:27;;;;;;;4.67;1.73;;;;;;;19.20;70.07;100493.84;6048464;28;20042;-64
2022/07/26 05:18:22;;;;;;;5.43;2.10;;;;;;;19.30;69.64;100491.56;6048062;28;20556;-65
2022/07/26 05:21:18;;;;;;;5.47;2.00;;;;;;;19.36;70.55;100501.50;6047961;28;20667;-64
2022/07/26 05:24:13;;;;;;;5.78;1.88;;;;;;;19.49;68.98;100496.13;6047758;28;20022;-64
2022/07/26 05:27:09;;;;;;;5.33;1.83;;;;;;;19.40;69.58;100502.78;6050122;28;20501;-65
2022/07/26 05:30:04;;;;;;;5.60;2.10;;;;;;;19.37;69.97;100508.53;6052570;28;20033;-66
2022/07/26 05:33:00;;;;;;;5.38;2.00;;;;;;;19.41;69.98;100505.25;6050962;28;20033;-66
2022/07/26 05:35:55;;;;;;;6.97;2.20;;;;;;;19.46;69.96;100509.97;6052364;28;20372;-63
2022/07/26 05:38:50;;;;;;;8.02;2.28;;;;;;;19.42;70.45;100514.97;6052727;28;20414;-64
2022/07/26 05:41:46;;;;;;;6.87;1.93;;;;;;;19.48;69.81;100510.63;6051921;28;20033;-65
2022/07/26 05:44:41;;;;;;;9.23;2.37;;;;;;;19.41;70.10;100499.88;6052675;28;20026;-64
2022/07/26 05:47:36;;;;;;;5.67;1.93;;;;;;;19.43;69.92;100513.13;6052442;28;20284;-65
2022/07/26 05:50:32;;;;;;;6.30;2.03;;;;;;;19.43;70.13;100507.75;6052297;28;20049;-66
2022/07/26 05:53:27;;;;;;;7.27;2.27;;;;;;;19.45;70.31;100521.78;6053018;28;20481;-66
2022/07/26 05:56:22;;;;;;;10.67;2.97;;;;;;;19.31;70.34;100515.56;6052766;28;20277;-65
2022/07/26 05:59:18;;;;;;;8.97;2.30;;;;;;;19.40;70.28;100518.91;6051811;28;20034;-65
2022/07/26 06:02:13;;;;;;;5.47;1.97;;;;;;;19.49;69.95;100525.72;6051476;28;20026;-65
2022/07/26 06:05:08;;;;;;;6.65;2.10;;;;;;;19.67;69.46;100525.09;6052252;28;20026;-66
2022/07/26 06:08:04;;;;;;;9.90;1.67;;;;;;;19.83;69.58;100516.56;6052065;28;20730;-65
2022/07/26 06:10:59;;;;;;;4.97;1.80;;;;;;;19.91;67.85;100522.53;6051963;28;20346;-63
2022/07/26 06:13:54;;;;;;;9.40;1.90;;;;;;;19.87;67.98;100525.84;6051955;28;20469;-65
2022/07/26 06:16:50;;;;;;;7.13;2.10;;;;;;;19.92;68.01;100529.56;6051718;28;20057;-66
2022/07/26 06:19:45;;;;;;;7.68;2.17;;;;;;;19.83;68.52;100538.09;6051658;28;20057;-65
2022/07/26 06:22:40;;;;;;;5.93;2.17;;;;;;;19.81;68.61;100538.28;6051693;28;20018;-65
2022/07/26 06:25:36;;;;;;;4.10;2.13;;;;;;;19.88;68.62;100532.91;6050022;28;20042;-65
2022/07/26 06:28:31;;;;;;;5.18;2.22;;;;;;;19.79;68.88;100534.97;6051286;28;20028;-66
2022/07/26 06:31:27;;;;;;;5.05;2.10;;;;;;;19.75;68.56;100543.69;6049358;28;20044;-64
2022/07/26 06:34:22;;;;;;;6.67;2.17;;;;;;;19.86;69.07;100546.59;6050314;28;20437;-64
2022/07/26 06:37:18;;;;;;;7.30;1.88;;;;;;;20.27;67.85;100553.53;6050672;28;20265;-65
2022/07/26 06:40:13;;;;;;;6.28;2.22;;;;;;;20.76;66.15;100545.63;6050186;28;20033;-63
2022/07/26 06:43:08;;;;;;;7.00;2.25;;;;;;;20.48;66.74;100553.22;6050447;28;20034;-65
2022/07/26 06:46:04;;;;;;;7.73;2.10;;;;;;;20.06;67.94;100552.72;6051020;28;20057;-64
2022/07/26 06:48:59;;;;;;;5.03;1.87;;;;;;;20.07;68.02;100559.78;6050777;28;20513;-64
2022/07/26 06:51:56;;;;;;;7.53;2.33;;;;;;;20.69;67.12;100553.75;6050709;28;20667;-65
2022/07/26 06:54:52;;;;;;;4.82;2.15;;;;;;;20.96;66.01;100558.97;6049106;28;20451;-65
2022/07/26 06:57:47;;;;;;;9.27;2.20;;;;;;;21.31;64.57;100544.00;6050513;28;20029;-64
2022/07/26 07:00:42;;;;;;;5.53;2.03;;;;;;;21.19;64.84;100561.97;6049927;28;20076;-65
2022/07/26 07:03:38;;;;;;;4.70;1.80;;;;;;;21.26;64.97;100566.25;6050082;28;20323;-64
2022/07/26 07:06:33;;;;;;;10.07;2.13;;;;;;;21.03;65.06;100555.22;6050730;28;20040;-64
2022/07/26 07:09:28;;;;;;;6.70;2.40;;;;;;;21.15;65.57;100568.84;6050439;28;20026;-64
2022/07/26 07:12:24;;;;;;;5.23;1.80;;;;;;;21.50;64.50;100556.50;6048684;28;20693;-66
2022/07/26 07:15:19;;;;;;;5.93;2.17;;;;;;;21.70;64.54;100557.16;6050057;28;20084;-65
2022/07/26 07:18:14;;;;;;;5.60;2.07;;;;;;;22.13;62.54;100554.47;6049784;28;20629;-65
2022/07/26 07:21:10;;;;;;;3.50;1.80;;;;;;;22.16;62.20;100545.91;6049457;28;20101;-65
2022/07/26 07:24:05;;;;;;;6.43;2.20;;;;;;;22.83;59.73;100552.16;6049379;28;20716;-66
2022/07/26 07:27:01;;;;;;;5.75;2.05;;;;;;;22.85;59.00;100555.44;6049440;28;20469;-65
2022/07/26 07:29:56;;;;;;;6.60;2.30;;;;;;;22.63;59.83;100554.28;6049607;28;20037;-66
2022/07/26 07:32:51;;;;;;;5.60;2.13;;;;;;;21.99;61.33;100555.66;6047971;28;20061;-66
2022/07/26 07:35:47;;;;;;;5.63;2.03;;;;;;;21.56;62.91;100558.34;6049988;28;20273;-63
2022/07/26 07:38:47;;;;;;;6.17;2.00;;;;;;;21.97;61.33;100557.75;6048975;28;20284;-64
2022/07/26 07:41:43;;;;;;;7.07;2.10;;;;;;;22.43;60.01;100558.06;6048485;28;20496;-64
2022/07/26 07:44:40;;;;;;;5.93;2.00;;;;;;;22.06;61.76;100561.00;6050287;28;20104;-64
2022/07/26 07:47:35;;;;;;;8.43;2.05;;;;;;;21.90;61.26;100557.81;6049085;28;20025;-65
2022/07/26 07:50:31;;;;;;;6.97;2.22;;;;;;;22.06;60.39;100561.81;6047808;28;20548;-65
2022/07/26 07:53:26;;;;;;;7.65;2.25;;;;;;;21.95;61.42;100562.56;6049207;28;20397;-66
2022/07/26 07:56:22;;;;;;;6.10;2.60;;;;;;;21.88;62.07;100559.91;6049384;28;20369;-65
2022/07/26 07:59:17;;;;;;;6.47;2.03;;;;;;;21.97;60.62;100563.16;6048924;28;20047;-64
2022/07/26 08:02:14;;;;;;;5.57;1.70;;;;;;;21.61;61.73;100563.88;6047280;28;20668;-66
2022/07/26 08:05:09;;;;;;;6.28;2.22;;;;;;;21.41;62.08;100557.03;6049271;28;20136;-65
2022/07/26 08:08:05;;;;;;;4.47;2.23;;;;;;;21.95;61.12;100562.56;6048761;28;20038;-64
2022/07/26 08:11:00;;;;;;;7.50;2.30;;;;;;;22.28;59.83;100544.13;6047955;28;20283;-65
2022/07/26 08:13:55;;;;;;;10.60;1.83;;;;;;;21.88;59.89;100554.53;6048635;28;20363;-64
2022/07/26 08:16:51;;;;;;;7.63;2.07;;;;;;;22.42;58.25;100556.38;6048934;28;20409;-64
2022/07/26 08:19:46;;;;;;;5.28;2.30;;;;;;;22.48;57.78;100547.38;6048998;28;20025;-64
2022/07/26 08:22:42;;;;;;;5.77;1.93;;;;;;;22.39;57.33;100556.84;6047692;28;20783;-65
2022/07/26 08:25:37;;;;;;;5.87;1.97;;;;;;;22.03;58.37;100562.28;6048107;28;20030;-64
2022/07/26 08:28:32;;;;;;;5.20;1.67;;;;;;;22.02;58.93;100566.00;6048860;28;20072;-66
2022/07/26 08:31:28;;;;;;;7.63;2.28;;;;;;;21.97;59.40;100575.84;6047519;28;20117;-64
2022/07/26 08:34:23;;;;;;;6.30;2.40;;;;;;;21.82;59.68;100571.56;6049069;28;20022;-64
2022/07/26 08:37:19;;;;;;;4.25;1.95;;;;;;;21.72;58.72;100575.84;6048826;28;20434;-64
2022/07/26 08:40:14;;;;;;;3.03;1.77;;;;;;;21.78;57.32;100566.84;6048132;28;20040;-66
2022/07/26 08:43:10;;;;;;;5.70;1.83;;;;;;;21.92;57.52;100569.25;6048581;28;20744;-63
2022/07/26 08:46:05;;;;;;;4.22;1.65;;;;;;;22.00;57.23;100570.81;6048840;28;20064;-64
2022/07/26 08:49:00;;;;;;;5.72;2.00;;;;;;;22.19;57.28;100583.28;6048416;28;20384;-64
2022/07/26 08:51:58;;;;;;;3.40;1.70;;;;;;;23.00;55.58;100575.59;6047892;28;20398;-64
2022/07/26 08:54:53;;;;;;;5.80;1.80;;;;;;;23.46;52.82;100576.78;6048411;28;20029;-66
2022/07/26 08:57:48;;;;;;;4.53;2.00;;;;;;;23.91;52.37;100579.78;6048770;28;20030;-65
2022/07/26 09:00:44;;;;;;;7.90;2.30;;;;;;;23.29;53.59;100628.03;6049111;28;20032;-64
2022/07/26 09:03:40;;;;;;;4.78;1.77;;;;;;;21.15;63.65;100650.59;6053693;28;20269;-65
2022/07/26 09:06:35;;;;;;;3.35;1.40;;;;;;;19.64;71.59;100652.78;6052833;28;20038;-64
2022/07/26 09:09:32;;;;;;;3.87;1.63;;;;;;;18.76;76.33;100659.16;6053543;28;20026;-64
2022/07/26 09:12:29;;;;;;;3.30;1.67;;;;;;;17.93;79.34;100655.75;6052430;28;20056;-65
2022/07/26 09:15:26;;;;;;;3.20;1.80;;;;;;;17.67;80.82;100675.97;6052550;28;20101;-64
2022/07/26 09:18:26;;;;;;;4.20;1.80;;;;;;;17.49;82.85;100683.59;6051355;28;20022;-64
2022/07/26 09:21:28;;;;;;;5.80;1.90;;;;;;;17.31;84.35;100696.63;6042820;28;20053;-63
2022/07/26 09:24:35;;;;;;;3.40;1.42;;;;;;;17.29;82.91;100695.97;6052713;28;20034;-64
2022/07/26 09:27:35;;;;;;;3.10;1.63;;;;;;;17.17;82.83;100700.19;6041024;28;20129;-63
2022/07/26 09:30:31;;;;;;;4.95;2.00;;;;;;;17.11;86.29;100717.84;6052408;28;20061;-64
2022/07/26 09:33:42;;;;;;;4.43;1.77;;;;;;;16.73;88.80;100708.28;6050780;28;20036;-64
2022/07/26 09:36:51;;;;;;;3.30;1.92;;;;;;;16.61;91.04;100707.91;6052575;28;20555;-63
2022/07/26 09:40:00;;;;;;;3.08;1.58;;;;;;;16.54;91.91;100720.38;6052022;28;20026;-64
2022/07/26 09:43:00;;;;;;;4.10;2.00;;;;;;;16.49;92.20;100724.59;6051278;28;20378;-63
2022/07/26 09:46:04;;;;;;;3.97;2.15;;;;;;;16.63;92.96;100721.94;6052336;28;20416;-64
2022/07/26 09:49:16;;;;;;;4.78;1.73;;;;;;;16.52;93.17;100735.75;6052329;28;20117;-64
2022/07/26 09:52:19;;;;;;;4.30;2.15;;;;;;;16.46;92.62;100731.16;6051025;28;20421;-63
2022/07/26 09:55:15;;;;;;;4.65;1.92;;;;;;;16.52;92.35;100733.06;6052578;28;20025;-62
2022/07/26 09:58:12;;;;;;;3.55;2.22;;;;;;;16.63;92.20;100738.00;6050848;28;20056;-63
2022/07/26 10:01:08;;;;;;;4.32;2.67;;;;;;;16.75;92.56;100741.06;6051661;28;20026;-63
2022/07/26 10:04:03;;;;;;;5.47;2.70;;;;;;;16.79;91.83;100734.34;6039757;28;20042;-63
2022/07/26 10:07:00;;;;;;;4.25;2.65;;;;;;;16.81;91.59;100742.16;6051794;28;20536;-63
2022/07/26 10:10:03;;;;;;;5.20;2.70;;;;;;;16.93;90.97;100751.41;6052422;28;20057;-64
2022/07/26 10:13:02;;;;;;;4.90;2.45;;;;;;;17.05;90.78;100757.94;6055396;28;20026;-64
2022/07/26 10:15:58;;;;;;;5.28;2.90;;;;;;;17.24;89.55;100768.09;6058917;28;20541;-63
2022/07/26 10:18:54;;;;;;;6.53;2.83;;;;;;;17.64;89.03;100767.53;6051952;28;20030;-64
2022/07/26 10:21:49;;;;;;;5.93;2.83;;;;;;;18.05;87.43;100761.53;6054108;28;20036;-64
2022/07/26 10:24:45;;;;;;;6.43;2.83;;;;;;;18.52;84.97;100761.75;6051991;28;20038;-65
2022/07/26 10:27:41;;;;;;;4.63;2.70;;;;;;;19.16;83.04;100761.47;6051638;28;20064;-64
2022/07/26 10:30:37;;;;;;;3.35;2.28;;;;;;;19.54;79.90;100768.06;6050759;28;20300;-63
2022/07/26 10:33:41;;;;;;;5.93;2.47;;;;;;;19.83;77.88;100774.94;6050023;28;20618;-65
2022/07/26 10:36:38;;;;;;;4.88;2.60;;;;;;;19.67;76.90;100769.94;6049877;28;20072;-64
2022/07/26 10:39:34;;;;;;;3.67;2.33;;;;;;;19.80;78.27;100778.88;6051165;28;20038;-63
2022/07/26 10:42:41;;;;;;;3.40;1.80;;;;;;;19.70;76.52;100772.25;6049725;28;20386;-64
2022/07/26 10:45:37;;;;;;;6.00;2.72;;;;;;;19.90;77.11;100783.84;6051817;28;20045;-65
2022/07/26 10:48:32;;;;;;;5.18;2.20;;;;;;;19.77;76.63;100768.53;6051024;28;20030;-65
2022/07/26 10:51:32;;;;;;;5.17;1.90;;;;;;;19.75;76.65;100792.13;6049844;28;20050;-64
2022/07/26 10:54:27;;;;;;;3.45;1.77;;;;;;;19.23;77.23;100798.13;6046997;28;20033;-64
2022/07/26 10:57:23;;;;;;;4.07;1.80;;;;;;;18.81;78.17;100792.91;6050856;28;20037;-65
2022/07/26 11:00:22;;;;;;;5.13;1.80;;;;;;;19.06;78.45;100790.56;6050851;28;20036;-63
2022/07/26 11:03:17;;;;;;;2.28;1.23;;;;;;;19.39;76.87;100796.97;6050853;28;20489;-64
2022/07/26 11:06:14;;;;;;;3.10;1.50;;;;;;;19.61;73.41;100795.81;6050927;28;20038;-65
2022/07/26 11:09:11;;;;;;;2.88;1.27;;;;;;;19.79;73.50;100809.50;6051289;28;20025;-64
2022/07/26 11:12:16;;;;;;;5.85;1.50;;;;;;;20.00;72.38;100817.41;6049887;28;20467;-65
2022/07/26 11:15:17;;;;;;;4.05;1.42;;;;;;;19.95;71.00;100821.75;6044025;28;20034;-63
2022/07/26 11:18:26;;;;;;;3.50;1.52;;;;;;;20.29;70.22;100815.41;6050716;28;20072;-64
2022/07/26 11:21:22;;;;;;;4.05;1.30;;;;;;;20.01;70.75;100827.16;6050314;28;20029;-64
2022/07/26 11:24:17;;;;;;;2.03;1.20;;;;;;;19.63;71.39;100819.81;6049044;28;20042;-65
2022/07/26 11:27:13;;;;;;;3.47;1.13;;;;;;;19.34;71.94;100827.13;6050329;28;20041;-64
2022/07/26 11:30:09;;;;;;;4.70;1.50;;;;;;;19.27;72.39;100823.56;6049887;28;20082;-63
2022/07/26 11:33:04;;;;;;;3.25;1.20;;;;;;;19.64;71.36;100826.84;6049895;28;20112;-64
2022/07/26 11:35:59;;;;;;;3.40;1.00;;;;;;;20.10;70.41;100830.50;6050939;28;20041;-63
2022/07/26 11:38:55;;;;;;;4.20;1.17;;;;;;;20.51;68.81;100824.94;6050136;28;20034;-64
2022/07/26 11:41:56;;;;;;;3.17;1.00;;;;;;;20.89;68.35;100833.22;6049284;28;20045;-64
2022/07/26 11:44:52;;;;;;;3.15;1.60;;;;;;;20.90;65.19;100824.09;6044408;28;20578;-64
2022/07/26 11:47:47;;;;;;;3.17;1.25;;;;;;;21.12;65.14;100829.03;6045171;28;20030;-65
2022/07/26 11:50:45;;;;;;;1.97;1.00;;;;;;;21.14;64.91;100821.56;6046231;28;20179;-63
2022/07/26 11:53:41;;;;;;;1.60;0.75;;;;;;;21.63;61.38;100825.53;6047057;28;20025;-65
2022/07/26 11:56:36;;;;;;;1.83;0.75;;;;;;;22.13;61.62;100811.09;6047355;28;20040;-66
2022/07/26 11:59:33;;;;;;;3.20;0.50;;;;;;;22.20;57.51;100811.91;6046366;28;20037;-64
2022/07/26 12:02:29;;;;;;;0.80;0.50;;;;;;;22.40;57.92;100820.66;6046260;28;20425;-63
2022/07/26 12:05:24;;;;;;;1.17;0.45;;;;;;;22.12;56.20;100817.56;6045847;28;20092;-65
2022/07/26 12:08:20;;;;;;;2.23;0.70;;;;;;;22.16;58.86;100824.19;6046567;28;20030;-64
2022/07/26 12:11:16;;;;;;;1.45;0.55;;;;;;;22.36;57.43;100811.38;6046043;28;20029;-63
2022/07/26 12:14:12;;;;;;;1.63;0.60;;;;;;;22.06;57.66;100820.31;6046840;28;20041;-64
2022/07/26 12:17:12;;;;;;;1.53;0.60;;;;;;;22.06;59.02;100821.16;6046789;28;20037;-64
2022/07/26 12:20:12;;;;;;;4.20;0.65;;;;;;;21.94;57.67;100828.28;6045705;28;20099;-64
2022/07/26 12:23:07;;;;;;;3.55;0.70;;;;;;;21.62;59.23;100827.38;6046993;28;20117;-65
2022/07/26 12:26:23;;;;;;;1.23;0.50;;;;;;;22.16;59.29;100818.78;6062531;28;20048;-64
2022/07/26 12:29:28;;;;;;;1.58;0.50;;;;;;;22.69;57.36;100831.91;6046608;28;20030;-63
2022/07/26 12:32:34;;;;;;;1.02;0.50;;;;;;;23.18;56.18;100822.88;6045861;28;20362;-64
2022/07/26 12:35:32;;;;;;;1.35;0.50;;;;;;;22.83;54.69;100822.63;6046115;28;20038;-63
2022/07/26 12:38:38;;;;;;;1.63;0.50;;;;;;;22.19;56.85;100826.44;6045884;28;20041;-65
2022/07/26 12:41:36;;;;;;;1.05;0.65;;;;;;;22.32;57.37;100829.06;6045810;28;20030;-64
2022/07/26 12:44:31;;;;;;;1.55;0.80;;;;;;;22.81;56.25;100835.50;6045982;28;20381;-64
2022/07/26 12:47:27;;;;;;;1.30;0.70;;;;;;;22.44;56.71;100835.41;6045741;28;20033;-66
2022/07/26 12:50:24;;;;;;;1.33;0.77;;;;;;;22.18;58.50;100813.97;6045944;28;20069;-65
2022/07/26 12:53:19;;;;;;;3.60;0.90;;;;;;;22.10;58.67;100833.16;6046305;28;20018;-65
2022/07/26 12:56:15;;;;;;;1.93;0.70;;;;;;;22.20;58.22;100838.94;6046449;28;20464;-65
2022/07/26 12:59:11;;;;;;;4.47;0.80;;;;;;;22.00;57.85;100835.50;6044868;28;20041;-65
2022/07/26 13:02:06;;;;;;;3.13;0.82;;;;;;;21.63;58.06;100841.72;6044019;28;20041;-63
2022/07/26 13:05:03;;;;;;;3.35;0.80;;;;;;;21.46;58.05;100840.53;6048267;28;20064;-64
2022/07/26 13:07:58;;;;;;;2.13;0.77;;;;;;;21.18;58.93;100844.38;6048892;28;20372;-63
2022/07/26 13:10:53;;;;;;;5.63;0.87;;;;;;;21.03;59.31;100838.38;6048434;28;20038;-64
2022/07/26 13:13:49;;;;;;;2.40;0.90;;;;;;;20.90;59.68;100851.84;6064324;28;20033;-64
2022/07/26 13:16:44;;;;;;;2.10;0.87;;;;;;;20.96;58.78;100853.72;6047244;28;20030;-65
2022/07/26 13:19:39;;;;;;;1.60;0.70;;;;;;;20.79;59.96;100847.09;6049263;28;20044;-63
2022/07/26 13:22:35;;;;;;;2.78;0.60;;;;;;;21.04;58.81;100853.50;6048121;28;20059;-65
2022/07/26 13:25:30;;;;;;;1.70;0.80;;;;;;;21.28;58.75;100855.53;6045962;28;20042;-64
2022/07/26 13:28:25;;;;;;;1.97;0.73;;;;;;;21.70;57.47;100853.31;6044036;28;20330;-65
2022/07/26 13:31:21;;;;;;;2.07;0.70;;;;;;;21.79;56.97;100835.81;6046727;28;20277;-64
2022/07/26 13:34:17;;;;;;;2.40;0.90;;;;;;;21.97;55.57;100851.31;6048976;28;20113;-63
2022/07/26 13:37:12;;;;;;;2.42;0.85;;;;;;;21.92;55.69;100841.19;6048331;28;20049;-65
2022/07/26 13:40:08;;;;;;;2.77;0.80;;;;;;;22.61;54.13;100834.84;6047728;28;20022;-65